Time;durP1;ratioP1;P1;durP2;ratioP2;P2;SDS_P1;SDS_P2;PMS_P1;PMS_P2;Temp;Humidity;BMP_temperature;BMP_pressure;BME280_temperature;BME280_humidity;BME280_pressure;Samples;Min_cycle;Max_cycle;Signal;HPM_P1;HPM_P2
2022/05/15 00:01:42;;;;;;;12.47;11.07;;;11.50;1.00;;;;;;4996679;28;20488;-59
2022/05/15 00:04:09;;;;;;;10.77;9.87;;;11.50;1.00;;;;;;4997588;28;20472;-58
2022/05/15 00:06:36;;;;;;;13.33;10.90;;;11.50;1.00;;;;;;4997271;28;20465;-58
2022/05/15 00:09:04;;;;;;;17.30;10.70;;;11.50;1.00;;;;;;4997492;28;20465;-58
2022/05/15 00:11:31;;;;;;;11.47;10.10;;;11.40;1.00;;;;;;4997123;28;20520;-59
2022/05/15 00:14:02;;;;;;;11.43;9.53;;;11.40;1.00;;;;;;5010144;28;20464;-58
2022/05/15 00:16:30;;;;;;;11.87;10.70;;;11.40;1.00;;;;;;5016798;28;20482;-59
2022/05/15 00:19:04;;;;;;;12.73;9.97;;;11.30;1.00;;;;;;5015634;28;20822;-59
2022/05/15 00:21:31;;;;;;;11.60;10.40;;;11.20;1.00;;;;;;5016578;28;20517;-58
2022/05/15 00:23:59;;;;;;;12.27;11.00;;;11.20;1.00;;;;;;5008587;28;20465;-59
2022/05/15 00:26:26;;;;;;;18.30;10.50;;;11.20;1.00;;;;;;5000771;28;20981;-58
2022/05/15 00:28:53;;;;;;;17.53;11.13;;;11.20;1.00;;;;;;5000250;28;20464;-59
2022/05/15 00:31:30;;;;;;;15.27;10.70;;;11.10;1.00;;;;;;5000865;28;20460;-58
2022/05/15 00:34:00;;;;;;;12.57;11.27;;;11.10;1.00;;;;;;5006451;28;20551;-59
2022/05/15 00:36:30;;;;;;;12.07;10.03;;;11.10;1.00;;;;;;5019877;28;20527;-58
2022/05/15 00:38:59;;;;;;;11.20;10.10;;;11.10;1.00;;;;;;5019827;28;20582;-58
2022/05/15 00:41:26;;;;;;;13.57;10.90;;;11.00;1.00;;;;;;5020193;28;20494;-58
2022/05/15 00:43:58;;;;;;;12.00;10.80;;;11.00;1.00;;;;;;5017678;28;20563;-58
2022/05/15 00:46:29;;;;;;;15.30;11.90;;;11.00;1.00;;;;;;5000492;28;20835;-59
2022/05/15 00:48:58;;;;;;;14.50;10.60;;;10.90;1.00;;;;;;5000796;28;20988;-58
2022/05/15 00:51:30;;;;;;;11.40;10.20;;;10.90;1.00;;;;;;5000527;28;20511;-58
2022/05/15 00:54:06;;;;;;;14.70;10.37;;;10.90;1.00;;;;;;5000222;28;20526;-59
2022/05/15 00:56:41;;;;;;;10.90;9.90;;;10.90;1.00;;;;;;5000532;28;20468;-59
2022/05/15 00:59:15;;;;;;;16.90;11.37;;;10.80;1.00;;;;;;5000170;28;20551;-58
2022/05/15 01:01:43;;;;;;;11.20;10.20;;;10.80;1.00;;;;;;5000236;28;20519;-59
2022/05/15 01:04:13;;;;;;;15.43;10.87;;;10.80;1.00;;;;;;5000189;28;20465;-58
2022/05/15 01:06:43;;;;;;;12.27;10.80;;;10.80;1.00;;;;;;5016428;28;20467;-59
2022/05/15 01:09:14;;;;;;;11.30;10.30;;;10.70;1.00;;;;;;5019605;28;20487;-58
2022/05/15 01:11:46;;;;;;;11.97;10.87;;;10.70;1.00;;;;;;5019721;28;20464;-59
2022/05/15 01:14:18;;;;;;;11.63;9.47;;;10.70;1.00;;;;;;5019601;28;20468;-59
2022/05/15 01:16:49;;;;;;;11.43;10.23;;;10.60;1.00;;;;;;5014212;28;20458;-58
2022/05/15 01:19:16;;;;;;;12.73;10.37;;;10.60;1.00;;;;;;5012487;28;20511;-58
2022/05/15 01:21:56;;;;;;;12.63;10.77;;;10.50;1.00;;;;;;5008994;28;20510;-58
2022/05/15 01:24:23;;;;;;;12.80;11.37;;;10.50;1.00;;;;;;5001845;28;20472;-59
2022/05/15 01:26:52;;;;;;;11.43;10.33;;;10.40;1.00;;;;;;4999273;28;20460;-59
2022/05/15 01:29:27;;;;;;;14.77;10.23;;;10.40;1.00;;;;;;4999461;28;20471;-58
2022/05/15 01:31:58;;;;;;;10.60;9.50;;;10.30;1.00;;;;;;4999548;28;20788;-58
2022/05/15 01:34:25;;;;;;;12.90;10.43;;;10.30;1.00;;;;;;5007412;28;20495;-54
2022/05/15 01:36:55;;;;;;;11.50;10.40;;;10.20;1.00;;;;;;5018940;28;20464;-58
2022/05/15 01:39:22;;;;;;;13.07;11.23;;;10.10;1.00;;;;;;5011623;28;20518;-58
2022/05/15 01:41:55;;;;;;;15.53;10.87;;;10.10;1.00;;;;;;5018519;28;20495;-58
2022/05/15 01:44:27;;;;;;;12.80;10.43;;;10.10;1.00;;;;;;5012077;28;20519;-59
2022/05/15 01:46:54;;;;;;;12.87;10.40;;;10.10;1.00;;;;;;4998748;28;20755;-59
2022/05/15 01:49:24;;;;;;;11.37;10.17;;;10.00;1.00;;;;;;4998899;28;20473;-59
2022/05/15 01:51:52;;;;;;;11.33;9.80;;;9.90;1.00;;;;;;4998833;28;20515;-58
2022/05/15 01:54:23;;;;;;;15.20;10.50;;;10.00;1.00;;;;;;4999544;28;20525;-59
2022/05/15 01:56:56;;;;;;;12.17;10.50;;;10.00;1.00;;;;;;5018229;28;20464;-58
2022/05/15 01:59:23;;;;;;;12.20;9.90;;;9.90;1.00;;;;;;5018961;28;20468;-58
2022/05/15 02:01:54;;;;;;;17.53;11.47;;;9.90;1.00;;;;;;5018488;28;20804;-58
2022/05/15 02:04:21;;;;;;;14.30;12.80;;;9.90;1.00;;;;;;5018995;28;20468;-58
2022/05/15 02:06:50;;;;;;;14.07;11.97;;;9.90;1.00;;;;;;4999931;28;20446;-58
2022/05/15 02:09:21;;;;;;;12.40;11.10;;;9.80;1.00;;;;;;5000678;28;20454;-58
2022/05/15 02:11:52;;;;;;;12.50;10.90;;;9.90;1.00;;;;;;5016315;28;20468;-59
2022/05/15 02:14:21;;;;;;;14.03;11.57;;;9.90;1.00;;;;;;5018168;28;20823;-58
2022/05/15 02:16:55;;;;;;;11.67;10.47;;;9.80;1.00;;;;;;5016287;28;20514;-58
2022/05/15 02:19:22;;;;;;;13.60;10.23;;;9.80;1.00;;;;;;5018220;28;20459;-59
2022/05/15 02:21:58;;;;;;;11.27;10.20;;;9.80;1.00;;;;;;5018155;28;20801;-59
2022/05/15 02:24:28;;;;;;;11.27;10.07;;;9.70;1.00;;;;;;5018719;28;20547;-59
2022/05/15 02:26:55;;;;;;;12.70;10.57;;;9.80;1.00;;;;;;5017680;28;20791;-58
2022/05/15 02:29:24;;;;;;;11.53;10.30;;;9.80;1.00;;;;;;5002554;28;20913;-58
2022/05/15 02:31:54;;;;;;;15.10;10.53;;;9.80;1.00;;;;;;4997971;28;20457;-58
2022/05/15 02:34:21;;;;;;;11.03;9.97;;;9.80;1.00;;;;;;5000252;28;20972;-58
2022/05/15 02:36:51;;;;;;;12.20;10.37;;;9.60;1.00;;;;;;5005548;28;20468;-57
2022/05/15 02:39:20;;;;;;;11.73;10.43;;;9.60;1.00;;;;;;5016766;28;20878;-58
2022/05/15 02:41:48;;;;;;;14.93;9.90;;;9.60;1.00;;;;;;5017776;28;20937;-58
2022/05/15 02:44:15;;;;;;;11.20;10.23;;;9.60;1.00;;;;;;5017327;28;20468;-59
2022/05/15 02:46:42;;;;;;;13.07;10.43;;;9.60;1.00;;;;;;5016883;28;20460;-58
2022/05/15 02:51:58;;;;;;;15.60;9.80;;;9.60;1.00;;;;;;4997687;28;20732;-58
2022/05/15 02:54:25;;;;;;;11.10;10.00;;;9.50;1.00;;;;;;4998522;28;20497;-58
2022/05/15 02:56:57;;;;;;;12.33;9.73;;;9.50;1.00;;;;;;4998286;28;20476;-58
2022/05/15 02:59:24;;;;;;;11.13;10.03;;;9.40;1.00;;;;;;4999338;28;20493;-58
2022/05/15 03:01:54;;;;;;;12.70;10.30;;;9.40;1.00;;;;;;4998492;28;20489;-58
2022/05/15 03:04:23;;;;;;;11.03;10.03;;;9.40;1.00;;;;;;5005004;28;20538;-58
2022/05/15 03:06:50;;;;;;;11.20;10.20;;;9.40;1.00;;;;;;5003727;28;20473;-58
2022/05/15 03:09:20;;;;;;;14.23;10.80;;;9.30;1.00;;;;;;5009882;28;20463;-58
2022/05/15 03:11:50;;;;;;;13.90;9.80;;;9.40;1.00;;;;;;5017225;28;20511;-58
2022/05/15 03:14:18;;;;;;;12.77;11.57;;;9.40;1.00;;;;;;5016336;28;20460;-58
2022/05/15 03:16:46;;;;;;;13.80;12.23;;;9.20;1.00;;;;;;5014527;28;20923;-57
2022/05/15 03:19:13;;;;;;;15.33;10.77;;;9.30;1.00;;;;;;5001866;28;20948;-59
2022/05/15 03:21:43;;;;;;;12.20;11.13;;;9.20;1.00;;;;;;4999801;28;20492;-58
2022/05/15 03:24:15;;;;;;;11.93;10.87;;;9.20;1.00;;;;;;4997436;28;20802;-57
2022/05/15 03:26:44;;;;;;;14.47;10.70;;;9.10;1.00;;;;;;5016262;28;20475;-58
2022/05/15 03:29:13;;;;;;;13.60;10.57;;;9.10;1.00;;;;;;5017165;28;20783;-59
2022/05/15 03:31:47;;;;;;;12.37;11.20;;;9.10;1.00;;;;;;5016834;28;20506;-58
2022/05/15 03:34:22;;;;;;;10.87;9.87;;;9.10;1.00;;;;;;5017049;28;20459;-58
2022/05/15 03:36:51;;;;;;;13.13;10.63;;;9.10;1.00;;;;;;5003240;28;20467;-57
2022/05/15 03:39:19;;;;;;;14.47;12.97;;;9.00;1.00;;;;;;5013632;28;20559;-58
2022/05/15 03:41:50;;;;;;;12.83;9.60;;;9.00;1.00;;;;;;5017122;28;20578;-58
2022/05/15 03:44:25;;;;;;;13.93;12.30;;;9.00;1.00;;;;;;5012298;28;20465;-58
2022/05/15 03:46:57;;;;;;;11.13;10.10;;;9.00;1.00;;;;;;5010159;28;20463;-58
2022/05/15 03:49:26;;;;;;;13.63;10.60;;;8.90;1.00;;;;;;5008429;28;20838;-57
2022/05/15 03:51:56;;;;;;;12.07;10.73;;;8.90;1.00;;;;;;4999261;28;20456;-58
2022/05/15 03:54:23;;;;;;;12.47;11.23;;;8.90;1.00;;;;;;5003973;28;20496;-59
2022/05/15 03:56:54;;;;;;;12.00;10.70;;;8.90;1.00;;;;;;5005235;28;20443;-57
2022/05/15 03:59:25;;;;;;;11.50;10.40;;;9.00;1.00;;;;;;5008750;28;20758;-56
2022/05/15 04:01:56;;;;;;;11.73;10.47;;;9.00;1.00;;;;;;5018616;28;20492;-58
2022/05/15 04:04:23;;;;;;;10.40;9.50;;;9.10;1.00;;;;;;5006430;28;20472;-58
2022/05/15 04:06:52;;;;;;;12.90;10.40;;;9.10;1.00;;;;;;5017294;28;20472;-57
2022/05/15 04:09:19;;;;;;;11.83;10.60;;;9.10;1.00;;;;;;5003201;28;20484;-58
2022/05/15 04:11:49;;;;;;;12.33;11.13;;;9.10;1.00;;;;;;5002956;28;20468;-58
2022/05/15 04:14:17;;;;;;;11.43;10.37;;;9.10;1.00;;;;;;5010589;28;20827;-58
2022/05/15 04:16:44;;;;;;;12.27;10.70;;;9.10;1.00;;;;;;5019547;28;20521;-57
2022/05/15 04:19:17;;;;;;;12.47;10.57;;;9.20;1.00;;;;;;5002291;28;20516;-58
2022/05/15 04:21:47;;;;;;;11.40;10.30;;;9.20;1.00;;;;;;5000890;28;20497;-58
2022/05/15 04:24:20;;;;;;;11.00;9.90;;;9.30;1.00;;;;;;5000853;28;20469;-58
2022/05/15 04:26:48;;;;;;;11.40;10.30;;;9.20;1.00;;;;;;5000273;28;20472;-58
2022/05/15 04:29:18;;;;;;;11.40;10.30;;;9.20;1.00;;;;;;5013889;28;20501;-58
2022/05/15 04:31:48;;;;;;;12.67;10.07;;;9.20;1.00;;;;;;5016907;28;20464;-58
2022/05/15 04:34:19;;;;;;;14.17;11.00;;;9.30;1.00;;;;;;5015487;28;20514;-58
2022/05/15 04:36:46;;;;;;;11.23;10.00;;;9.30;1.00;;;;;;5006717;28;20496;-58
2022/05/15 04:39:13;;;;;;;12.80;11.60;;;9.40;1.00;;;;;;5015358;28;20464;-58
2022/05/15 04:41:43;;;;;;;11.30;10.13;;;9.50;1.00;;;;;;5019360;28;20497;-59
2022/05/15 04:44:11;;;;;;;11.30;10.20;;;9.50;1.00;;;;;;5019550;28;20455;-58
2022/05/15 04:46:38;;;;;;;12.03;10.83;;;9.50;1.00;;;;;;5020291;28;20472;-58
2022/05/15 04:49:08;;;;;;;11.03;9.93;;;9.50;1.00;;;;;;5018684;28;20468;-59
2022/05/15 04:51:39;;;;;;;11.43;10.43;;;9.60;1.00;;;;;;5019561;28;20466;-58
2022/05/15 04:54:11;;;;;;;14.07;10.67;;;9.60;1.00;;;;;;5000076;28;20471;-57
2022/05/15 04:56:39;;;;;;;12.27;10.43;;;9.70;1.00;;;;;;5000211;28;20956;-58
2022/05/15 04:59:14;;;;;;;12.90;11.70;;;9.80;1.00;;;;;;5009376;28;20464;-57
2022/05/15 05:01:42;;;;;;;11.00;9.90;;;9.80;1.00;;;;;;5019320;28;20587;-58
2022/05/15 05:04:14;;;;;;;13.50;11.30;;;9.90;1.00;;;;;;5019437;28;20529;-58
2022/05/15 05:06:45;;;;;;;11.37;10.27;;;9.90;1.00;;;;;;5019892;28;20905;-59
2022/05/15 05:09:14;;;;;;;12.33;11.13;;;9.90;1.00;;;;;;5012477;28;20471;-58
2022/05/15 05:11:44;;;;;;;11.23;10.10;;;10.10;1.00;;;;;;5000127;28;20485;-57
2022/05/15 05:14:11;;;;;;;12.50;10.00;;;10.10;1.00;;;;;;5000141;28;20465;-56
2022/05/15 05:16:38;;;;;;;11.80;10.00;;;10.10;1.00;;;;;;5000341;28;20523;-58
2022/05/15 05:19:11;;;;;;;11.73;10.53;;;10.20;1.00;;;;;;5001450;28;20534;-56
2022/05/15 05:21:38;;;;;;;11.93;10.60;;;10.30;1.00;;;;;;5019190;28;20492;-58
2022/05/15 05:24:07;;;;;;;12.57;11.00;;;10.40;1.00;;;;;;5018986;28;20464;-58
2022/05/15 05:26:34;;;;;;;11.80;10.60;;;10.60;1.00;;;;;;5018519;28;20463;-59
2022/05/15 05:29:04;;;;;;;16.00;11.00;;;10.80;1.00;;;;;;5019568;28;20467;-59
2022/05/15 05:31:34;;;;;;;14.00;11.77;;;11.00;1.00;;;;;;5000158;28;20985;-59
2022/05/15 05:34:03;;;;;;;14.97;11.60;;;11.10;1.00;;;;;;4999493;28;20467;-58
2022/05/15 05:36:30;;;;;;;12.90;11.23;;;11.30;1.00;;;;;;4999770;28;20460;-58
2022/05/15 05:39:01;;;;;;;14.40;9.60;;;11.40;1.00;;;;;;4999834;28;20469;-58
2022/05/15 05:41:32;;;;;;;12.43;11.13;;;11.60;1.00;;;;;;5012220;28;20468;-59
2022/05/15 05:44:01;;;;;;;12.87;10.73;;;11.80;1.00;;;;;;5018654;28;20467;-58
2022/05/15 05:46:28;;;;;;;11.27;10.07;;;12.00;1.00;;;;;;5018606;28;20888;-57
2022/05/15 05:48:55;;;;;;;13.00;9.10;;;12.20;1.00;;;;;;5017504;28;20764;-58
2022/05/15 05:51:25;;;;;;;10.40;9.10;;;12.40;1.00;;;;;;5009222;28;20824;-59
2022/05/15 05:53:53;;;;;;;11.40;8.90;;;12.50;1.00;;;;;;5010962;28;20486;-59
2022/05/15 05:56:23;;;;;;;13.90;8.67;;;12.80;1.00;;;;;;4998879;28;20909;-59
2022/05/15 05:58:52;;;;;;;14.47;9.10;;;13.20;1.00;;;;;;4999499;28;20465;-59
2022/05/15 06:01:21;;;;;;;14.03;9.37;;;13.50;1.00;;;;;;5003991;28;20464;-59
2022/05/15 06:06:34;;;;;;;11.97;9.50;;;14.10;1.00;;;;;;5018113;28;20560;-60
2022/05/15 06:09:08;;;;;;;11.27;9.00;;;14.40;1.00;;;;;;5018814;28;20464;-60
2022/05/15 06:11:37;;;;;;;10.20;8.40;;;14.70;99.90;;;;;;5013900;28;20461;-60
2022/05/15 06:14:06;;;;;;;9.67;8.30;;;15.00;99.90;;;;;;4998726;28;20464;-60
2022/05/15 06:16:33;;;;;;;11.13;9.00;;;15.30;99.90;;;;;;4999841;28;20976;-60
2022/05/15 06:19:01;;;;;;;12.07;8.77;;;15.50;99.90;;;;;;4997435;28;20789;-60
2022/05/15 06:21:31;;;;;;;10.17;8.80;;;15.90;99.90;;;;;;4998103;28;20469;-59
2022/05/15 06:24:06;;;;;;;12.37;9.40;;;16.40;99.90;;;;;;4998434;28;20465;-59
2022/05/15 06:26:36;;;;;;;11.90;8.93;;;16.70;99.90;;;;;;4998659;28;20901;-59
2022/05/15 06:29:10;;;;;;;9.90;7.90;;;17.00;99.90;;;;;;4999104;28;20464;-60
2022/05/15 06:31:40;;;;;;;8.63;7.60;;;17.10;99.90;;;;;;4999072;28;20464;-60
2022/05/15 06:34:07;;;;;;;13.20;8.80;;;17.40;99.90;;;;;;5014208;28;20464;-59
2022/05/15 06:36:34;;;;;;;11.53;7.40;;;17.80;99.90;;;;;;5017549;28;20896;-60
2022/05/15 06:39:05;;;;;;;12.90;8.20;;;18.10;99.90;;;;;;5017887;28;20522;-60
2022/05/15 06:41:33;;;;;;;10.10;8.40;;;18.50;99.90;;;;;;5017856;28;20881;-59
2022/05/15 06:44:01;;;;;;;11.20;7.87;;;18.70;99.90;;;;;;5005149;28;20551;-60
2022/05/15 06:46:32;;;;;;;8.73;7.17;;;18.80;99.90;;;;;;4998291;28;20785;-59
2022/05/15 06:49:08;;;;;;;8.70;7.80;;;19.10;99.90;;;;;;4998263;28;20469;-59
2022/05/15 06:51:37;;;;;;;9.00;7.07;;;19.10;99.90;;;;;;4998148;28;20515;-60
2022/05/15 06:54:07;;;;;;;11.10;8.00;;;19.50;99.90;;;;;;5005735;28;20772;-60
2022/05/15 06:59:25;;;;;;;7.07;6.30;;;19.90;99.90;;;;;;5017541;28;20562;-60
2022/05/15 07:01:56;;;;;;;10.87;7.37;;;20.20;99.90;;;;;;5017512;28;20805;-60
2022/05/15 07:04:24;;;;;;;10.17;7.00;;;20.40;99.90;;;;;;5008769;28;20512;-61
2022/05/15 07:06:54;;;;;;;7.93;6.07;;;20.70;99.90;;;;;;4997281;28;20838;-60
2022/05/15 07:09:23;;;;;;;12.70;6.37;;;20.80;99.90;;;;;;4997201;28;20491;-60
2022/05/15 07:11:53;;;;;;;10.97;6.83;;;21.00;99.90;;;;;;4996898;28;20464;-60
2022/05/15 07:14:25;;;;;;;10.80;7.77;;;21.20;99.90;;;;;;5000325;28;20456;-60
2022/05/15 07:16:57;;;;;;;11.43;6.90;;;21.40;99.90;;;;;;5016757;28;20769;-58
2022/05/15 07:19:23;;;;;;;9.20;6.50;;;21.60;99.90;;;;;;5016432;28;20468;-60
2022/05/15 07:21:51;;;;;;;8.03;6.80;;;21.70;99.90;;;;;;5016410;28;20464;-60
2022/05/15 07:24:18;;;;;;;15.70;6.60;;;21.80;99.90;;;;;;5016192;28;20938;-61
2022/05/15 07:26:50;;;;;;;7.17;6.47;;;22.00;99.90;;;;;;5015107;28;20526;-60
2022/05/15 07:29:20;;;;;;;9.93;6.63;;;22.40;99.90;;;;;;5011310;28;20471;-59
2022/05/15 07:31:50;;;;;;;11.23;7.00;;;22.80;99.90;;;;;;4996530;28;20523;-60
2022/05/15 07:34:18;;;;;;;8.37;5.90;;;23.10;99.90;;;;;;5001357;28;20504;-59
2022/05/15 07:36:50;;;;;;;9.47;6.10;;;23.40;99.90;;;;;;5017011;28;20526;-60
2022/05/15 07:39:22;;;;;;;6.57;5.93;;;23.50;99.90;;;;;;5021439;28;20475;-60
2022/05/15 07:41:56;;;;;;;9.57;6.30;;;23.60;99.90;;;;;;5020751;28;20831;-60
2022/05/15 07:44:25;;;;;;;14.30;6.60;;;23.50;99.90;;;;;;5021111;28;20908;-60
2022/05/15 07:46:54;;;;;;;10.47;6.70;;;23.40;99.90;;;;;;5019001;28;20469;-61
2022/05/15 07:49:29;;;;;;;12.63;5.67;;;23.20;99.90;;;;;;5019147;28;20571;-60
2022/05/15 07:52:04;;;;;;;8.00;5.37;;;23.30;99.90;;;;;;5019799;28;20891;-59
2022/05/15 07:54:37;;;;;;;9.97;5.60;;;23.60;99.90;;;;;;5019227;28;20483;-60
2022/05/15 07:57:06;;;;;;;6.03;5.43;;;23.60;99.90;;;;;;5009178;28;20510;-60
2022/05/15 07:59:33;;;;;;;8.00;4.90;;;23.60;99.90;;;;;;5000955;28;20915;-59
2022/05/15 08:02:02;;;;;;;5.63;4.73;;;24.20;99.90;;;;;;5002131;28;20960;-60
2022/05/15 08:08:00;;;;;;;5.60;4.10;;;24.60;99.90;;;;;;5020892;28;20458;-60
2022/05/15 08:10:12;;;;;;;6.67;5.10;;;25.40;99.90;;;;;;5020385;28;20446;-60
2022/05/15 08:12:41;;;;;;;8.87;5.10;;;25.30;99.90;;;;;;5002874;28;20936;-60
2022/05/15 08:15:17;;;;;;;8.50;5.27;;;25.50;99.90;;;;;;5001145;28;20469;-60
2022/05/15 08:17:44;;;;;;;8.17;5.20;;;25.60;99.90;;;;;;5005875;28;20555;-60
2022/05/15 08:25:44;;;;;;;8.73;4.97;;;25.30;99.90;;;;;;4999764;28;20483;-61
2022/05/15 08:28:16;;;;;;;9.40;5.60;;;24.90;99.90;;;;;;5005049;28;20514;-60
2022/05/15 08:30:47;;;;;;;8.33;5.17;;;24.70;99.90;;;;;;5020301;28;20463;-60
2022/05/15 08:33:14;;;;;;;12.87;5.17;;;25.00;99.90;;;;;;5008910;28;20810;-59
2022/05/15 08:35:49;;;;;;;8.77;5.40;;;25.50;99.90;;;;;;5000435;28;20465;-60
2022/05/15 08:38:16;;;;;;;6.53;4.70;;;25.70;99.90;;;;;;5002541;28;21786;-60
2022/05/15 08:40:54;;;;;;;7.83;4.97;;;25.70;99.90;;;;;;5020038;28;20467;-60
2022/05/15 08:43:27;;;;;;;6.70;4.33;;;26.10;99.90;;;;;;5019397;28;20978;-60
2022/05/15 08:46:04;;;;;;;7.37;4.23;;;26.40;99.90;;;;;;5019553;28;20468;-60
2022/05/15 08:48:35;;;;;;;7.70;4.70;;;26.30;99.90;;;;;;5019057;28;20499;-60
2022/05/15 08:51:09;;;;;;;5.53;4.53;;;26.50;99.90;;;;;;5000538;28;20894;-60
2022/05/15 08:53:38;;;;;;;6.50;4.40;;;26.50;99.90;;;;;;5000711;28;20464;-61
2022/05/15 08:56:08;;;;;;;6.23;4.43;;;26.40;99.90;;;;;;4999769;28;20469;-60
2022/05/15 08:58:46;;;;;;;7.83;4.83;;;25.50;99.90;;;;;;5000356;28;20985;-58
2022/05/15 09:01:23;;;;;;;7.10;4.50;;;25.80;99.90;;;;;;5014417;28;20745;-58
2022/05/15 09:03:50;;;;;;;4.60;4.17;;;26.30;99.90;;;;;;5018578;28;20522;-58
2022/05/15 09:06:31;;;;;;;5.57;4.60;;;26.90;99.90;;;;;;5018903;28;20785;-59
2022/05/15 09:09:14;;;;;;;6.90;4.57;;;27.20;99.90;;;;;;5018342;28;20527;-59
2022/05/15 09:11:56;;;;;;;7.43;5.03;;;27.40;99.90;;;;;;5016406;28;20761;-59
2022/05/15 09:14:40;;;;;;;6.47;4.37;;;28.00;99.90;;;;;;5016093;28;20881;-58
2022/05/15 09:17:17;;;;;;;7.27;4.40;;;28.10;99.90;;;;;;5017606;28;20523;-59
2022/05/15 09:19:45;;;;;;;6.33;4.23;;;28.40;99.90;;;;;;5015338;28;20460;-59
2022/05/15 09:22:19;;;;;;;4.93;4.20;;;28.70;99.90;;;;;;5018981;28;20885;-58
2022/05/15 09:24:52;;;;;;;5.70;4.30;;;28.90;99.90;;;;;;5015799;28;20541;-58
2022/05/15 09:27:23;;;;;;;7.37;4.90;;;28.80;99.90;;;;;;5019254;28;20460;-59
2022/05/15 09:29:55;;;;;;;6.23;4.60;;;28.60;99.90;;;;;;5009648;28;20465;-59
2022/05/15 09:32:32;;;;;;;6.70;5.20;;;28.00;99.90;;;;;;4999575;28;20469;-58
2022/05/15 09:35:05;;;;;;;5.97;4.03;;;28.40;99.90;;;;;;5000565;28;20536;-59
2022/05/15 09:40:23;;;;;;;6.90;4.90;;;28.10;99.90;;;;;;5018149;28;20927;-59
2022/05/15 09:45:48;;;;;;;4.67;4.00;;;28.60;99.90;;;;;;5015276;28;20459;-60
2022/05/15 09:48:26;;;;;;;8.30;5.40;;;28.10;99.90;;;;;;4999648;28;20469;-61
2022/05/15 09:51:04;;;;;;;5.30;4.70;;;28.10;99.90;;;;;;4999381;28;20500;-61
2022/05/15 09:53:45;;;;;;;5.80;5.20;;;28.50;99.90;;;;;;5013245;28;20738;-60
2022/05/15 09:56:28;;;;;;;9.40;5.10;;;28.60;99.90;;;;;;5014369;28;20460;-60
2022/05/15 09:59:02;;;;;;;5.17;4.50;;;28.30;99.90;;;;;;5017456;28;20468;-61
2022/05/15 10:01:36;;;;;;;7.10;5.37;;;28.80;99.90;;;;;;5016427;28;20434;-59
2022/05/15 10:04:06;;;;;;;6.87;4.87;;;28.60;99.90;;;;;;5018152;28;20567;-61
2022/05/15 10:06:49;;;;;;;10.23;4.83;;;28.30;99.90;;;;;;5016244;28;20468;-61
2022/05/15 10:09:26;;;;;;;5.30;4.57;;;28.10;99.90;;;;;;5016727;28;20468;-61
2022/05/15 10:11:59;;;;;;;5.53;4.13;;;27.80;99.90;;;;;;5016363;28;20653;-61
2022/05/15 10:14:32;;;;;;;6.60;5.03;;;28.60;99.90;;;;;;5017824;28;20804;-61
2022/05/15 10:17:02;;;;;;;5.30;4.80;;;28.90;99.90;;;;;;5014688;28;20490;-62
2022/05/15 10:19:39;;;;;;;8.00;4.57;;;29.00;99.90;;;;;;5015945;28;20470;-61
2022/05/15 10:22:25;;;;;;;5.97;4.93;;;28.90;99.90;;;;;;5015166;28;20517;-60
2022/05/15 10:24:57;;;;;;;7.13;4.80;;;29.20;99.90;;;;;;5016640;28;20587;-63
2022/05/15 10:27:32;;;;;;;6.83;4.93;;;28.70;99.90;;;;;;5015612;28;20546;-61
2022/05/15 10:30:06;;;;;;;7.20;5.17;;;28.50;99.90;;;;;;4997395;28;20790;-61
2022/05/15 10:32:40;;;;;;;7.57;5.10;;;28.70;99.90;;;;;;4997360;28;20492;-60
2022/05/15 10:35:16;;;;;;;5.90;4.53;;;29.30;99.90;;;;;;5006646;28;20885;-61
2022/05/15 10:38:09;;;;;;;5.40;4.90;;;27.70;99.90;;;;;;5015679;28;20479;-62
2022/05/15 10:40:46;;;;;;;10.97;5.63;;;28.00;99.90;;;;;;5016744;28;20464;-60
2022/05/15 10:43:33;;;;;;;11.30;4.70;;;28.40;99.90;;;;;;5011357;28;20493;-60
2022/05/15 10:46:07;;;;;;;5.87;4.03;;;28.40;99.90;;;;;;4997988;28;20468;-61
2022/05/15 10:48:46;;;;;;;8.40;4.50;;;29.10;99.90;;;;;;4998296;28;20910;-60
2022/05/15 10:51:22;;;;;;;6.47;4.97;;;29.90;99.90;;;;;;4998328;28;20519;-60
2022/05/15 10:57:24;;;;;;;5.97;4.73;;;29.80;99.90;;;;;;4997119;28;20455;-60
2022/05/15 11:00:07;;;;;;;5.03;4.53;;;30.10;99.90;;;;;;5003938;28;20464;-59
2022/05/15 11:03:31;;;;;;;8.20;5.40;;;30.30;99.90;;;;;;5017789;28;20471;-60
2022/05/15 11:06:29;;;;;;;6.97;5.30;;;30.60;99.90;;;;;;4975912;28;20457;-60
2022/05/15 11:09:07;;;;;;;9.87;5.33;;;30.40;99.90;;;;;;4976185;28;20461;-60
2022/05/15 11:11:50;;;;;;;6.33;4.50;;;29.70;99.90;;;;;;4995585;28;20469;-61
2022/05/15 11:14:29;;;;;;;7.80;4.57;;;30.00;99.90;;;;;;5013306;28;20507;-60
2022/05/15 11:17:14;;;;;;;7.30;4.93;;;30.60;99.90;;;;;;4997804;28;20468;-61
2022/05/15 11:19:43;;;;;;;6.10;4.43;;;31.10;99.90;;;;;;4998338;28;20468;-60
2022/05/15 11:22:27;;;;;;;5.50;4.87;;;30.40;99.90;;;;;;5015614;28;20848;-58
2022/05/15 11:25:05;;;;;;;6.20;4.50;;;30.70;99.90;;;;;;5017072;28;20510;-58
2022/05/15 11:27:47;;;;;;;8.40;4.43;;;30.90;99.90;;;;;;5016645;28;20467;-57
2022/05/15 11:30:22;;;;;;;5.77;4.30;;;30.60;99.90;;;;;;5016918;28;20468;-58
2022/05/15 11:33:03;;;;;;;8.67;5.43;;;30.70;99.90;;;;;;5017399;28;20738;-58
2022/05/15 11:35:37;;;;;;;5.20;4.60;;;31.30;99.90;;;;;;5015269;28;20837;-57
2022/05/15 11:38:12;;;;;;;5.00;4.00;;;31.60;99.90;;;;;;5017282;28;20498;-57
2022/05/15 11:40:47;;;;;;;8.90;4.97;;;31.80;99.90;;;;;;5016036;28;20504;-58
2022/05/15 11:43:37;;;;;;;7.17;4.43;;;31.90;99.90;;;;;;5010389;28;20485;-58
2022/05/15 11:46:11;;;;;;;4.30;3.50;;;32.00;99.90;;;;;;5011456;28;20459;-61
2022/05/15 11:48:56;;;;;;;6.30;4.40;;;32.00;99.90;;;;;;5013059;28;20472;-60
2022/05/15 11:51:32;;;;;;;5.17;4.27;;;31.90;99.90;;;;;;5008983;28;20467;-61
2022/05/15 11:54:03;;;;;;;7.63;4.20;;;32.10;99.90;;;;;;5015320;28;20479;-61
2022/05/15 11:56:39;;;;;;;5.43;4.60;;;31.70;99.90;;;;;;5014362;28;20639;-60
2022/05/15 11:59:22;;;;;;;4.60;4.20;;;32.00;99.90;;;;;;5015690;28;20462;-60
2022/05/15 12:02:04;;;;;;;6.30;3.70;;;31.80;99.90;;;;;;5013995;28;20463;-59
2022/05/15 12:04:57;;;;;;;5.63;4.10;;;31.80;99.90;;;;;;5017102;28;20932;-60
2022/05/15 12:07:56;;;;;;;4.43;4.00;;;31.50;99.90;;;;;;5016746;28;20467;-61
2022/05/15 12:11:12;;;;;;;4.10;3.40;;;31.60;99.90;;;;;;5015630;28;20562;-61
2022/05/15 12:13:41;;;;;;;5.13;4.57;;;32.10;99.90;;;;;;5002392;28;20506;-61
2022/05/15 12:16:23;;;;;;;4.47;3.90;;;32.40;99.90;;;;;;4996657;28;20472;-61
2022/05/15 12:18:59;;;;;;;5.03;3.40;;;32.50;99.90;;;;;;4997814;28;20460;-59
2022/05/15 12:21:40;;;;;;;4.53;3.47;;;32.40;99.90;;;;;;5000939;28;20546;-61
2022/05/15 12:24:30;;;;;;;6.80;4.40;;;32.40;99.90;;;;;;5012036;28;20513;-61
2022/05/15 12:27:33;;;;;;;5.90;4.60;;;32.60;99.90;;;;;;5020644;28;20489;-60
2022/05/15 12:30:13;;;;;;;4.40;4.00;;;32.50;99.90;;;;;;5019361;28;20542;-60
2022/05/15 12:32:45;;;;;;;4.03;3.50;;;32.50;99.90;;;;;;5019955;28;20958;-61
2022/05/15 12:35:17;;;;;;;4.00;3.60;;;32.40;99.90;;;;;;5018669;28;20459;-61
2022/05/15 12:38:04;;;;;;;;;;;;;;;;;;;;;
2022/05/15 12:40:47;;;;;;;5.90;5.03;;;32.80;99.90;;;;;;5000016;28;20942;-60
2022/05/15 12:43:25;;;;;;;6.90;4.57;;;32.60;99.90;;;;;;5000218;28;20460;-61
2022/05/15 12:45:56;;;;;;;4.20;3.70;;;32.30;99.90;;;;;;5016779;28;20455;-60
2022/05/15 12:48:27;;;;;;;6.27;3.63;;;32.10;99.90;;;;;;5016714;28;20521;-60
2022/05/15 12:51:06;;;;;;;7.27;3.77;;;31.70;99.90;;;;;;5009803;28;20463;-61
2022/05/15 12:53:37;;;;;;;4.53;4.10;;;31.80;99.90;;;;;;5018214;28;20471;-60
2022/05/15 12:56:13;;;;;;;6.17;3.60;;;32.10;99.90;;;;;;5003501;28;20464;-59
2022/05/15 12:58:41;;;;;;;3.83;3.53;;;32.10;99.90;;;;;;4999732;28;20467;-59
2022/05/15 13:01:11;;;;;;;4.10;3.70;;;32.10;99.90;;;;;;5019340;28;20530;-60
2022/05/15 13:03:48;;;;;;;4.00;3.60;;;32.30;99.90;;;;;;5018189;28;20954;-59
2022/05/15 13:06:49;;;;;;;4.17;3.80;;;32.40;99.90;;;;;;5004983;28;20464;-60
2022/05/15 13:09:25;;;;;;;4.47;3.97;;;32.70;99.90;;;;;;4999670;28;20747;-60
2022/05/15 13:11:55;;;;;;;4.60;4.20;;;32.70;99.90;;;;;;5006910;28;20462;-59
2022/05/15 13:14:28;;;;;;;6.93;4.80;;;32.60;99.90;;;;;;5018445;28;20777;-61
2022/05/15 13:16:56;;;;;;;4.73;4.30;;;32.10;99.90;;;;;;5016389;28;20537;-60
2022/05/15 13:19:27;;;;;;;7.30;4.70;;;32.10;99.90;;;;;;5012735;28;20550;-59
2022/05/15 13:22:01;;;;;;;5.60;4.60;;;32.30;99.90;;;;;;5019517;28;20474;-60
2022/05/15 13:24:49;;;;;;;6.47;4.83;;;32.10;99.90;;;;;;5021883;28;20993;-60
2022/05/15 13:27:24;;;;;;;5.40;4.67;;;31.70;99.90;;;;;;5015871;28;20467;-61
2022/05/15 13:30:00;;;;;;;5.07;4.57;;;32.20;99.90;;;;;;5017977;28;20466;-61
2022/05/15 13:32:27;;;;;;;6.97;4.17;;;32.40;99.90;;;;;;4998661;28;20471;-60
2022/05/15 13:35:02;;;;;;;4.50;4.10;;;32.30;99.90;;;;;;4999202;28;20768;-60
2022/05/15 13:37:35;;;;;;;5.37;3.23;;;32.00;99.90;;;;;;5010240;28;20463;-61
2022/05/15 13:45:35;;;;;;;4.93;3.90;;;32.20;99.90;;;;;;5017645;28;20498;-61